Time;durP1;ratioP1;P1;durP2;ratioP2;P2;SDS_P1;SDS_P2;PMS_P1;PMS_P2;Temp;Humidity;BMP_temperature;BMP_pressure;BME280_temperature;BME280_humidity;BME280_pressure;Samples;Min_cycle;Max_cycle;Signal;HPM_P1;HPM_P2
2020/12/07 00:02:25;;;;;;;6.70;6.03;;;;;;;5.74;80.79;98271.63;9737753;28;20058;-72
2020/12/07 00:07:26;;;;;;;7.63;6.30;;;;;;;5.78;80.08;98259.81;9734509;28;20059;-72
2020/12/07 00:12:29;;;;;;;7.75;6.68;;;;;;;5.78;80.65;98255.38;9730718;28;20055;-72
2020/12/07 00:17:32;;;;;;;8.13;6.32;;;;;;;5.81;80.46;98241.03;9730071;28;20134;-72
2020/12/07 00:22:34;;;;;;;6.47;5.72;;;;;;;5.86;79.73;98233.53;9732346;28;23404;-71
2020/12/07 00:27:35;;;;;;;7.15;5.57;;;;;;;5.89;78.95;98241.16;9728778;28;20397;-70
2020/12/07 00:32:37;;;;;;;5.80;5.20;;;;;;;5.91;79.09;98246.31;9718294;28;20241;-72
2020/12/07 00:37:39;;;;;;;6.30;5.68;;;;;;;5.89;79.19;98237.72;9737594;28;20050;-73
2020/12/07 00:42:40;;;;;;;5.47;4.95;;;;;;;5.90;79.47;98239.34;9741092;28;20584;-72
2020/12/07 00:47:41;;;;;;;6.22;5.22;;;;;;;5.86;79.37;98222.97;9736368;28;20047;-74
2020/12/07 00:52:42;;;;;;;5.53;4.93;;;;;;;5.82;79.61;98216.31;9751131;28;25841;-72
2020/12/07 00:57:44;;;;;;;3.70;3.40;;;;;;;5.60;79.67;98210.38;9725624;28;20056;-72
2020/12/07 01:02:45;;;;;;;4.30;3.90;;;;;;;5.69;78.96;98231.63;9731115;28;20294;-72
2020/12/07 01:07:46;;;;;;;4.82;3.50;;;;;;;5.70;79.51;98234.13;9736960;28;21272;-75
2020/12/07 01:12:47;;;;;;;3.92;3.53;;;;;;;5.71;79.87;98217.31;9729227;28;20070;-72
2020/12/07 01:17:49;;;;;;;3.78;3.38;;;;;;;5.86;79.73;98204.50;9738215;28;20051;-72
2020/12/07 01:22:50;;;;;;;4.38;3.97;;;;;;;5.93;79.46;98192.38;9752293;28;20486;-72
2020/12/07 01:27:51;;;;;;;4.35;3.95;;;;;;;6.03;78.43;98196.81;9735061;28;20063;-73
2020/12/07 01:32:52;;;;;;;4.90;4.38;;;;;;;5.97;79.07;98206.16;9726479;28;20059;-73
2020/12/07 01:37:54;;;;;;;6.15;5.55;;;;;;;5.87;78.95;98192.09;9739044;28;20084;-72
2020/12/07 01:42:55;;;;;;;6.13;5.55;;;;;;;5.89;79.36;98185.72;9741417;28;20102;-72
2020/12/07 01:47:56;;;;;;;6.00;5.40;;;;;;;5.86;78.90;98183.38;9764733;28;20442;-71
2020/12/07 01:52:59;;;;;;;6.57;5.88;;;;;;;5.93;79.48;98197.66;9733895;28;21527;-71
2020/12/07 01:58:00;;;;;;;5.82;5.32;;;;;;;5.88;79.16;98197.25;9734552;28;20147;-71
2020/12/07 02:03:01;;;;;;;6.10;5.47;;;;;;;5.76;78.19;98212.41;9727670;28;20105;-72
2020/12/07 02:08:10;;;;;;;5.70;5.10;;;;;;;5.71;77.99;98208.56;9730337;28;22246;-73
2020/12/07 02:13:11;;;;;;;5.68;5.15;;;;;;;5.77;78.80;98213.28;9717054;28;20051;-72
2020/12/07 02:18:13;;;;;;;5.70;5.15;;;;;;;5.79;78.02;98217.41;9732712;28;20145;-71
2020/12/07 02:23:15;;;;;;;5.50;4.68;;;;;;;5.69;78.37;98218.41;9736173;28;20059;-72
2020/12/07 02:28:16;;;;;;;5.53;4.93;;;;;;;5.72;78.89;98253.31;9717849;28;20543;-71
2020/12/07 02:33:17;;;;;;;5.57;4.65;;;;;;;5.77;77.59;98272.19;9786154;28;20510;-72
2020/12/07 02:38:19;;;;;;;5.65;5.00;;;;;;;5.72;77.87;98273.56;9727343;28;20321;-73
2020/12/07 02:43:20;;;;;;;6.03;5.28;;;;;;;5.80;78.13;98274.53;9748264;28;20165;-72
2020/12/07 02:48:21;;;;;;;7.35;5.95;;;;;;;5.68;78.32;98251.09;9748812;28;21325;-72
2020/12/07 02:53:22;;;;;;;5.75;5.15;;;;;;;5.75;78.99;98257.44;9749556;28;20055;-72
2020/12/07 02:58:24;;;;;;;6.28;5.28;;;;;;;5.77;78.61;98256.34;9745480;28;20051;-73
2020/12/07 03:03:25;;;;;;;6.55;5.78;;;;;;;5.75;78.55;98254.81;9755575;28;20148;-72
2020/12/07 03:08:27;;;;;;;6.20;5.30;;;;;;;5.70;79.22;98251.78;9729955;28;20129;-71
2020/12/07 03:13:28;;;;;;;5.40;4.90;;;;;;;5.72;79.67;98226.06;9745553;28;20330;-72
2020/12/07 03:18:30;;;;;;;6.97;6.03;;;;;;;5.70;79.29;98212.19;9737280;28;20063;-72
2020/12/07 03:23:31;;;;;;;7.15;6.43;;;;;;;5.62;80.47;98226.91;9738071;28;20212;-72
2020/12/07 03:28:33;;;;;;;8.23;6.28;;;;;;;5.66;80.39;98227.47;9727752;28;20501;-72
2020/12/07 03:33:34;;;;;;;7.25;5.38;;;;;;;5.72;80.97;98242.75;9700118;28;20061;-72
2020/12/07 03:38:36;;;;;;;7.60;6.47;;;;;;;5.77;80.51;98260.78;9733627;28;22380;-73
2020/12/07 03:43:37;;;;;;;8.70;7.53;;;;;;;5.81;80.26;98254.22;9721517;28;22372;-72
2020/12/07 03:48:38;;;;;;;8.07;7.28;;;;;;;5.89;80.62;98232.44;9735499;28;20137;-74
2020/12/07 03:53:39;;;;;;;9.70;7.35;;;;;;;5.87;80.74;98222.00;9721092;28;20055;-73
2020/12/07 03:58:41;;;;;;;9.35;7.40;;;;;;;5.61;80.46;98235.78;9736757;28;20050;-72
2020/12/07 04:03:45;;;;;;;9.25;7.57;;;;;;;5.62;81.03;98244.56;9740001;28;20082;-72
2020/12/07 04:08:46;;;;;;;8.48;7.57;;;;;;;5.77;80.98;98239.69;9737699;28;20052;-72
2020/12/07 04:13:48;;;;;;;11.70;9.88;;;;;;;5.72;80.25;98258.59;9738754;28;20109;-73
2020/12/07 04:18:49;;;;;;;10.98;9.23;;;;;;;5.71;80.71;98266.66;9743629;28;20055;-72
2020/12/07 04:23:50;;;;;;;11.63;9.75;;;;;;;5.65;81.32;98275.94;9743231;28;20051;-72
2020/12/07 04:28:51;;;;;;;12.65;10.50;;;;;;;5.47;81.96;98287.22;9729964;28;20986;-72
2020/12/07 04:33:52;;;;;;;12.38;10.65;;;;;;;5.47;82.26;98291.66;9744090;28;20097;-72
2020/12/07 04:38:54;;;;;;;13.63;10.82;;;;;;;5.55;81.67;98304.16;9750965;28;20130;-72
2020/12/07 04:43:55;;;;;;;15.90;11.98;;;;;;;5.43;82.19;98300.81;9741608;28;20523;-72
2020/12/07 04:48:59;;;;;;;14.30;10.93;;;;;;;5.36;82.73;98297.91;9750573;28;20081;-72
2020/12/07 04:54:02;;;;;;;13.95;11.52;;;;;;;5.28;83.29;98288.06;9763521;28;20055;-72
2020/12/07 04:59:04;;;;;;;13.88;11.60;;;;;;;5.28;83.88;98295.97;9775498;28;20055;-72
2020/12/07 05:04:06;;;;;;;15.65;12.27;;;;;;;5.29;83.61;98316.09;9739702;28;20060;-72
2020/12/07 05:09:08;;;;;;;13.30;11.50;;;;;;;5.22;84.44;98338.69;9742961;28;20062;-72
2020/12/07 05:14:13;;;;;;;15.25;13.02;;;;;;;5.30;84.04;98330.94;9740605;28;22204;-72
2020/12/07 05:19:19;;;;;;;13.25;11.25;;;;;;;5.35;83.71;98332.34;9733870;28;20051;-72
2020/12/07 05:24:20;;;;;;;13.95;11.15;;;;;;;5.28;83.33;98325.00;9757985;28;20067;-72
2020/12/07 05:29:32;;;;;;;15.23;11.63;;;;;;;5.31;84.22;98319.44;9741016;28;20058;-72
2020/12/07 05:34:33;;;;;;;14.15;12.13;;;;;;;5.38;83.43;98330.25;9712884;28;20066;-71
2020/12/07 05:39:35;;;;;;;17.70;12.00;;;;;;;5.38;83.11;98334.72;9733166;28;20058;-72
2020/12/07 05:44:39;;;;;;;12.55;11.23;;;;;;;5.37;83.47;98341.78;9731175;28;20062;-72
2020/12/07 05:49:40;;;;;;;17.40;12.75;;;;;;;5.21;83.71;98344.13;9732264;28;20162;-73
2020/12/07 05:54:43;;;;;;;17.33;13.02;;;;;;;5.12;84.12;98351.06;9741304;28;20090;-72
2020/12/07 05:59:46;;;;;;;13.65;11.27;;;;;;;5.26;83.78;98349.84;9747086;28;20058;-72
2020/12/07 06:04:47;;;;;;;14.85;12.98;;;;;;;5.16;83.60;98352.44;9741907;28;20114;-73
2020/12/07 06:09:49;;;;;;;14.43;12.25;;;;;;;5.14;83.72;98362.31;9737355;28;21899;-72
2020/12/07 06:14:51;;;;;;;17.00;13.77;;;;;;;5.16;83.91;98360.34;9726434;28;21519;-72
2020/12/07 06:19:52;;;;;;;16.98;13.40;;;;;;;5.13;83.96;98379.94;9736274;28;23963;-72
2020/12/07 06:24:58;;;;;;;15.32;12.45;;;;;;;5.06;83.77;98381.44;9740007;28;20076;-73
2020/12/07 06:30:06;;;;;;;;;;;;;;;5.11;83.58;98386.31;9751046;28;20056;-73
2020/12/07 06:35:09;;;;;;;15.27;11.85;;;;;;;5.11;84.02;98402.97;9714828;28;20335;-72
2020/12/07 06:40:13;;;;;;;17.98;14.25;;;;;;;5.14;83.56;98401.88;9715714;28;20047;-73
2020/12/07 06:45:27;;;;;;;16.65;14.55;;;;;;;5.21;83.76;98410.91;9715075;28;22232;-72
2020/12/07 06:50:31;;;;;;;19.63;15.60;;;;;;;5.13;83.30;98416.88;9724592;28;20059;-72
2020/12/07 06:55:32;;;;;;;18.45;14.52;;;;;;;5.12;83.99;98424.91;9712621;28;20202;-74
2020/12/07 07:00:34;;;;;;;19.55;15.10;;;;;;;5.05;83.91;98443.06;9722486;28;20379;-73
2020/12/07 07:05:35;;;;;;;20.90;15.55;;;;;;;5.21;83.53;98445.22;9718697;28;20522;-72
2020/12/07 07:10:40;;;;;;;19.60;15.27;;;;;;;5.06;83.90;98435.97;9728592;28;20059;-71
2020/12/07 07:15:42;;;;;;;18.80;16.20;;;;;;;5.11;84.49;98428.50;9713243;28;20114;-72
2020/12/07 07:20:44;;;;;;;20.30;16.23;;;;;;;5.09;83.37;98435.72;9715641;28;20667;-71
2020/12/07 07:25:54;;;;;;;21.20;15.45;;;;;;;5.16;83.52;98442.13;9708229;28;20457;-72
2020/12/07 07:31:03;;;;;;;19.45;14.43;;;;;;;5.20;83.69;98443.53;9706251;28;20454;-72
2020/12/07 07:36:05;;;;;;;19.05;15.27;;;;;;;5.22;83.26;98446.84;9733530;28;20074;-70
2020/12/07 07:41:21;;;;;;;20.50;15.55;;;;;;;5.08;83.67;98457.78;9701353;28;20174;-71
2020/12/07 07:46:23;;;;;;;21.27;16.98;;;;;;;5.03;83.74;98478.44;9714235;28;20079;-71
2020/12/07 08:18:33;;;;;;;21.30;17.00;;;;;;;5.21;83.15;98500.59;9738068;28;20059;-72
2020/12/07 08:23:35;;;;;;;21.42;17.40;;;;;;;5.11;83.44;98511.09;9750706;28;20074;-70
2020/12/07 08:28:39;;;;;;;23.35;17.05;;;;;;;5.20;83.23;98512.13;9719668;28;20059;-70
2020/12/07 08:34:11;;;;;;;22.88;18.17;;;;;;;5.26;83.53;98526.59;9717616;28;20062;-76
2020/12/07 08:39:13;;;;;;;19.88;15.82;;;;;;;5.28;83.37;98537.84;9705697;28;22538;-69
2020/12/07 08:44:14;;;;;;;17.52;14.40;;;;;;;5.14;83.12;98534.56;9714450;28;20056;-70
2020/12/07 08:49:16;;;;;;;18.70;15.25;;;;;;;5.16;83.07;98523.88;9721753;28;20095;-69
2020/12/07 08:54:18;;;;;;;17.90;14.07;;;;;;;5.23;83.06;98526.84;9716994;28;20055;-69
2020/12/07 08:59:19;;;;;;;19.25;14.35;;;;;;;5.38;81.94;98537.88;9706705;28;20066;-72
2020/12/07 09:04:20;;;;;;;16.92;13.98;;;;;;;5.44;81.32;98542.63;9724412;28;20051;-72
2020/12/07 09:09:22;;;;;;;17.52;13.73;;;;;;;5.51;81.31;98556.97;9706347;28;20517;-72
2020/12/07 09:14:23;;;;;;;18.35;13.13;;;;;;;5.61;81.25;98563.09;9717763;28;20048;-71
2020/12/07 09:19:25;;;;;;;16.67;13.48;;;;;;;5.56;81.08;98564.50;9723925;28;20119;-72
2020/12/07 09:24:26;;;;;;;18.98;14.25;;;;;;;5.63;81.24;98577.03;9737088;28;20216;-72
2020/12/07 09:29:27;;;;;;;20.25;15.05;;;;;;;5.58;81.14;98591.59;9722334;28;20090;-72
2020/12/07 09:34:29;;;;;;;17.63;14.75;;;;;;;5.43;80.97;98601.66;9724609;28;20066;-73
2020/12/07 09:39:30;;;;;;;19.25;14.85;;;;;;;5.40;82.12;98607.19;9724712;28;20051;-73
2020/12/07 09:44:32;;;;;;;16.92;13.82;;;;;;;5.40;82.02;98613.28;9739302;28;20063;-72
2020/12/07 09:49:33;;;;;;;20.08;13.48;;;;;;;5.64;81.21;98628.84;9704759;28;20067;-71
2020/12/07 09:54:37;;;;;;;16.60;13.95;;;;;;;5.77;81.28;98617.22;9719747;28;20055;-71
2020/12/07 09:59:39;;;;;;;17.30;13.90;;;;;;;5.84;80.70;98616.56;9730051;28;20055;-72
2020/12/07 10:04:41;;;;;;;15.45;12.60;;;;;;;5.80;79.40;98612.50;9719250;28;20055;-74
2020/12/07 10:09:42;;;;;;;18.42;13.55;;;;;;;5.71;80.32;98615.94;9718931;28;20407;-72
2020/12/07 10:14:43;;;;;;;16.67;13.23;;;;;;;5.68;80.75;98616.22;9731225;28;25715;-72
2020/12/07 10:19:44;;;;;;;14.65;11.48;;;;;;;5.96;80.03;98609.38;9730442;28;20055;-72
2020/12/07 10:24:46;;;;;;;15.55;12.07;;;;;;;6.00;79.70;98621.38;9715189;28;20063;-72
2020/12/07 10:29:47;;;;;;;16.38;12.18;;;;;;;6.00;79.95;98621.38;9723184;28;20052;-72
2020/12/07 10:34:53;;;;;;;16.10;12.80;;;;;;;6.03;79.59;98622.06;9728993;28;20059;-72
2020/12/07 10:39:54;;;;;;;15.82;14.07;;;;;;;5.94;80.03;98621.88;9721548;28;20537;-72
2020/12/07 10:44:55;;;;;;;14.88;11.95;;;;;;;6.07;79.62;98641.97;9721397;28;20070;-71
2020/12/07 10:49:57;;;;;;;13.48;12.07;;;;;;;6.10;79.49;98639.06;9710793;28;20119;-71
2020/12/07 10:54:58;;;;;;;13.45;11.07;;;;;;;6.07;78.87;98640.16;9708642;28;20059;-72
2020/12/07 10:59:59;;;;;;;13.43;11.60;;;;;;;5.92;79.40;98634.38;9718622;28;20047;-72
2020/12/07 11:05:00;;;;;;;13.73;11.90;;;;;;;5.96;79.79;98637.56;9719909;28;20612;-72
2020/12/07 11:10:02;;;;;;;13.82;11.68;;;;;;;6.06;79.42;98640.28;9737972;28;21100;-73
2020/12/07 11:15:04;;;;;;;14.82;11.30;;;;;;;5.87;78.92;98633.97;9751657;28;20062;-72
2020/12/07 11:20:05;;;;;;;13.60;11.27;;;;;;;5.90;79.05;98641.63;9743155;28;20051;-73
2020/12/07 11:25:06;;;;;;;13.43;11.32;;;;;;;5.91;78.25;98645.91;9733820;28;20051;-73
2020/12/07 11:30:11;;;;;;;12.17;10.87;;;;;;;5.84;78.80;98647.44;9709321;28;20055;-72
2020/12/07 11:35:12;;;;;;;14.98;11.38;;;;;;;5.96;79.08;98646.34;9727104;28;24465;-73
2020/12/07 11:40:29;;;;;;;13.23;9.60;;;;;;;6.02;78.72;98642.38;9700139;28;20174;-72
2020/12/07 11:45:30;;;;;;;12.00;10.70;;;;;;;6.05;79.14;98636.84;9713445;28;20057;-71
2020/12/07 11:50:31;;;;;;;13.27;10.50;;;;;;;6.10;78.21;98642.53;9720591;28;20067;-72
2020/12/07 11:55:32;;;;;;;12.25;10.60;;;;;;;6.27;78.71;98646.31;9727511;28;20051;-73
2020/12/07 12:00:34;;;;;;;12.10;10.48;;;;;;;6.39;77.99;98638.28;9703823;28;20098;-73
2020/12/07 12:05:35;;;;;;;12.60;10.23;;;;;;;6.32;77.90;98643.28;9718766;28;20510;-72
2020/12/07 12:10:36;;;;;;;13.52;12.13;;;;;;;6.32;78.65;98641.50;9727204;28;20213;-72
2020/12/07 12:15:38;;;;;;;14.38;11.45;;;;;;;6.31;78.51;98646.91;9708420;28;20055;-72
2020/12/07 12:20:42;;;;;;;13.32;11.30;;;;;;;6.26;78.20;98652.59;9711638;28;20056;-72
2020/12/07 12:25:43;;;;;;;18.93;15.07;;;;;;;6.39;78.33;98651.50;9717761;28;24005;-72
2020/12/07 12:30:45;;;;;;;15.93;13.15;;;;;;;6.29;78.61;98652.31;9713994;28;20055;-70
2020/12/07 12:35:46;;;;;;;17.33;13.32;;;;;;;6.35;77.89;98646.50;9722000;28;20057;-72
2020/12/07 12:40:47;;;;;;;15.35;13.25;;;;;;;6.35;78.42;98659.72;9730499;28;20496;-70
2020/12/07 12:45:53;;;;;;;15.25;13.25;;;;;;;6.70;76.83;98649.63;9748789;28;20514;-70
2020/12/07 12:50:54;;;;;;;13.38;11.13;;;;;;;10.98;62.10;98643.00;9736276;28;20051;-74
2020/12/07 12:55:56;;;;;;;13.50;12.10;;;;;;;11.40;58.81;98636.66;9736496;28;20047;-71
2020/12/07 13:00:57;;;;;;;12.50;11.30;;;;;;;12.93;54.18;98634.72;9723854;28;20263;-72
2020/12/07 13:05:59;;;;;;;12.50;11.20;;;;;;;10.94;57.58;98641.66;9715551;28;20062;-71
2020/12/07 13:11:00;;;;;;;10.80;9.70;;;;;;;9.24;63.84;98642.41;9743645;28;24969;-73
2020/12/07 13:16:10;;;;;;;10.55;9.55;;;;;;;8.38;67.18;98651.69;9744843;28;20062;-72
2020/12/07 13:21:36;;;;;;;11.68;10.48;;;;;;;12.96;53.95;98643.19;9717331;28;20114;-72
2020/12/07 13:27:21;;;;;;;11.30;10.20;;;;;;;12.06;53.84;98635.69;9710924;28;21060;-72
2020/12/07 13:32:05;;;;;;;11.38;10.27;;;;;;;9.47;62.49;98638.28;9733433;28;24028;-71
2020/12/07 13:37:06;;;;;;;10.90;9.88;;;;;;;8.31;67.52;98660.22;9737741;28;21567;-72
2020/12/07 13:42:08;;;;;;;11.32;10.13;;;;;;;7.93;69.25;98669.22;9725075;28;20062;-72
2020/12/07 13:47:10;;;;;;;11.85;10.65;;;;;;;7.62;70.55;98672.09;9720878;28;20066;-72
2020/12/07 13:52:15;;;;;;;12.02;9.95;;;;;;;7.59;71.56;98680.31;9720055;28;20232;-73
2020/12/07 13:57:16;;;;;;;8.77;7.93;;;;;;;7.23;71.28;98677.44;9716598;28;20078;-71
2020/12/07 14:02:18;;;;;;;9.48;8.57;;;;;;;7.07;71.90;98686.78;9711935;28;20058;-71
2020/12/07 14:07:19;;;;;;;8.32;7.43;;;;;;;7.15;72.39;98690.56;9729327;28;20111;-72
2020/12/07 14:12:21;;;;;;;9.00;8.13;;;;;;;7.03;72.29;98701.28;9732602;28;23399;-72
2020/12/07 14:17:26;;;;;;;9.57;8.55;;;;;;;6.82;73.02;98708.50;9744193;28;20059;-72
2020/12/07 14:43:18;;;;;;;11.85;9.57;;;;;;;6.61;72.87;98741.16;9765972;28;24568;-71
2020/12/07 14:48:19;;;;;;;8.82;7.93;;;;;;;6.52;71.99;98740.16;9758840;28;20055;-72
2020/12/07 14:53:26;;;;;;;9.95;8.50;;;;;;;6.54;72.34;98748.81;9917712;28;20086;-71
2020/12/07 15:13:50;;;;;;;9.95;8.65;;;;;;;6.41;73.23;98768.50;9720791;28;20062;-70
2020/12/07 15:18:52;;;;;;;12.85;11.55;;;;;;;6.38;73.36;98774.91;9739955;28;20278;-69
2020/12/07 15:23:53;;;;;;;11.85;10.63;;;;;;;6.30;74.07;98770.25;9731479;28;20434;-69
2020/12/07 15:28:55;;;;;;;12.25;10.95;;;;;;;6.24;74.50;98778.72;9723109;28;24257;-73
2020/12/07 15:33:57;;;;;;;14.18;12.20;;;;;;;6.35;74.76;98789.22;9721959;28;20134;-71
2020/12/07 15:39:00;;;;;;;15.77;14.18;;;;;;;6.35;75.02;98783.06;9708151;28;20063;-71
2020/12/07 15:44:01;;;;;;;12.60;11.30;;;;;;;6.39;75.25;98787.13;9705892;28;23140;-72
2020/12/07 15:49:04;;;;;;;14.10;12.10;;;;;;;6.39;75.12;98788.94;9721233;28;20055;-72
2020/12/07 15:54:06;;;;;;;12.57;11.27;;;;;;;6.23;75.44;98777.06;9722995;28;20107;-70
2020/12/07 15:59:07;;;;;;;12.25;10.95;;;;;;;6.21;76.05;98778.97;9711755;28;20088;-70
2020/12/07 16:04:09;;;;;;;15.07;12.88;;;;;;;6.23;75.82;98771.78;9722249;28;20063;-72
2020/12/07 16:09:10;;;;;;;13.38;11.95;;;;;;;6.24;76.65;98781.38;9725018;28;21097;-73
2020/12/07 16:14:12;;;;;;;12.43;11.15;;;;;;;6.31;76.51;98782.50;9716685;28;20056;-73
2020/12/07 16:19:14;;;;;;;14.07;12.52;;;;;;;6.34;76.49;98787.53;9773869;28;20059;-70
2020/12/07 16:24:15;;;;;;;14.65;11.85;;;;;;;6.37;76.15;98781.16;9706873;28;20051;-69
2020/12/07 16:29:17;;;;;;;14.18;12.77;;;;;;;6.41;76.38;98773.78;9737820;28;20109;-70
2020/12/07 16:34:19;;;;;;;16.48;15.02;;;;;;;6.39;76.25;98775.72;9713161;28;20407;-67
2020/12/07 16:39:20;;;;;;;21.88;19.92;;;;;;;6.40;76.04;98780.88;9723843;28;21651;-70
2020/12/07 16:44:22;;;;;;;15.05;12.43;;;;;;;6.44;75.97;98782.31;9711485;28;20115;-71
2020/12/07 16:49:24;;;;;;;13.73;12.43;;;;;;;6.45;75.52;98788.41;9707382;28;20089;-69
2020/12/07 16:54:25;;;;;;;13.07;11.70;;;;;;;6.49;75.69;98795.13;9724439;28;20051;-71
2020/12/07 16:59:27;;;;;;;13.20;11.85;;;;;;;6.46;75.69;98779.53;9717871;28;20065;-70
2020/12/07 17:04:29;;;;;;;13.35;11.95;;;;;;;6.51;75.94;98790.53;9936374;28;20118;-72
2020/12/07 17:09:30;;;;;;;16.42;14.70;;;;;;;6.46;75.77;98790.09;9736122;28;20464;-71
2020/12/07 17:14:31;;;;;;;14.23;12.73;;;;;;;6.36;75.69;98785.63;9729178;28;20790;-69
2020/12/07 17:19:32;;;;;;;13.63;12.10;;;;;;;6.35;76.27;98786.56;9742954;28;20059;-69
2020/12/07 17:24:34;;;;;;;15.23;13.32;;;;;;;6.31;76.04;98777.22;9745644;28;20055;-71
2020/12/07 17:29:36;;;;;;;15.27;12.77;;;;;;;6.33;76.72;98785.84;9741440;28;20050;-71
2020/12/07 17:34:38;;;;;;;14.25;12.75;;;;;;;6.36;76.72;98795.31;9724388;28;20047;-71
2020/12/07 17:39:39;;;;;;;17.85;16.00;;;;;;;6.35;76.57;98794.50;9765662;28;20055;-71
2020/12/07 17:44:41;;;;;;;17.35;15.60;;;;;;;6.36;76.21;98806.75;9758052;28;20091;-69
2020/12/07 17:49:42;;;;;;;18.95;16.92;;;;;;;6.39;76.77;98805.63;9742181;28;20081;-71
2020/12/07 17:54:43;;;;;;;20.95;18.10;;;;;;;6.47;76.60;98807.63;9713623;28;21598;-71
2020/12/07 17:59:57;;;;;;;18.50;16.58;;;;;;;6.44;76.45;98811.38;9725947;28;23400;-72
2020/12/07 18:04:58;;;;;;;19.58;16.98;;;;;;;6.44;77.09;98818.44;9730025;28;20055;-71
2020/12/07 18:09:59;;;;;;;20.02;17.65;;;;;;;6.41;76.74;98813.44;9735119;28;20062;-71
2020/12/07 18:15:03;;;;;;;18.77;16.77;;;;;;;6.41;76.74;98824.88;9709153;28;22485;-71
2020/12/07 18:20:06;;;;;;;20.15;17.17;;;;;;;6.40;76.51;98822.34;9709931;28;20051;-71
2020/12/07 18:25:08;;;;;;;18.58;16.20;;;;;;;6.37;76.60;98824.28;9725931;28;20063;-72
2020/12/07 18:30:10;;;;;;;17.02;14.95;;;;;;;6.37;76.87;98829.56;9726054;28;20063;-72
2020/12/07 18:35:12;;;;;;;18.70;15.30;;;;;;;6.37;76.81;98823.44;9707790;28;20497;-71
2020/12/07 18:40:22;;;;;;;17.85;14.77;;;;;;;6.38;76.50;98825.13;9724444;28;20051;-71
2020/12/07 18:45:26;;;;;;;15.85;14.15;;;;;;;6.39;76.20;98823.31;9735545;28;20086;-72
2020/12/07 18:50:27;;;;;;;17.33;14.75;;;;;;;6.35;76.42;98828.88;9732071;28;20131;-71
2020/12/07 18:55:29;;;;;;;16.42;14.73;;;;;;;6.32;76.22;98829.13;9720131;28;20055;-71
2020/12/07 19:00:30;;;;;;;20.38;14.75;;;;;;;6.30;76.32;98828.41;9716943;28;20059;-71
2020/12/07 19:05:35;;;;;;;19.70;15.77;;;;;;;6.34;76.64;98832.47;9725334;28;20076;-71
2020/12/07 19:10:38;;;;;;;20.52;17.20;;;;;;;6.39;76.86;98825.94;9718876;28;20051;-72
2020/12/07 19:15:40;;;;;;;18.40;15.23;;;;;;;6.41;76.58;98824.00;9729899;28;20122;-70
2020/12/07 19:20:42;;;;;;;17.40;15.57;;;;;;;6.37;76.89;98824.28;9725228;28;20109;-71
2020/12/07 19:25:43;;;;;;;20.25;17.10;;;;;;;6.37;76.41;98824.28;9723882;28;20050;-72
2020/12/07 19:30:44;;;;;;;19.73;16.35;;;;;;;6.40;76.33;98830.28;9726206;28;20518;-71
2020/12/07 19:35:46;;;;;;;17.17;15.32;;;;;;;6.37;76.25;98828.72;9722458;28;20220;-72
2020/12/07 19:40:47;;;;;;;18.35;14.55;;;;;;;6.34;76.17;98824.53;9682185;28;20048;-71
2020/12/07 19:45:49;;;;;;;15.70;14.02;;;;;;;6.35;76.27;98826.22;9715584;28;20112;-72
2020/12/07 19:50:51;;;;;;;15.93;14.25;;;;;;;6.38;76.33;98825.13;9739342;28;20138;-71
2020/12/07 19:55:52;;;;;;;17.17;15.32;;;;;;;6.36;76.14;98819.13;9720394;28;20055;-71
2020/12/07 20:00:54;;;;;;;16.38;13.85;;;;;;;6.30;76.49;98815.19;9730676;28;20670;-71
2020/12/07 20:05:55;;;;;;;15.88;14.27;;;;;;;6.21;76.64;98818.63;9746510;28;20047;-71
2020/12/07 20:10:56;;;;;;;14.38;12.80;;;;;;;6.18;76.01;98834.75;9733801;28;20269;-71
2020/12/07 20:15:58;;;;;;;15.63;14.02;;;;;;;6.17;76.74;98833.91;9712180;28;20734;-70
2020/12/07 20:20:59;;;;;;;14.38;12.98;;;;;;;6.17;76.42;98838.34;9720378;28;20054;-75
2020/12/07 20:26:01;;;;;;;15.02;13.13;;;;;;;6.13;76.41;98837.78;9705852;28;20062;-71
2020/12/07 20:31:03;;;;;;;14.55;13.05;;;;;;;6.14;76.79;98836.81;9734595;28;20058;-69
2020/12/07 20:36:04;;;;;;;17.45;14.10;;;;;;;6.11;76.80;98836.22;9728859;28;20130;-67
2020/12/07 20:41:06;;;;;;;15.10;12.95;;;;;;;6.10;76.47;98837.22;9727985;28;20055;-72
2020/12/07 20:46:08;;;;;;;15.30;13.70;;;;;;;6.08;76.45;98815.34;9742538;28;20335;-71
2020/12/07 20:51:11;;;;;;;15.45;13.90;;;;;;;6.06;76.53;98830.50;9776005;28;20215;-72
2020/12/07 20:56:13;;;;;;;18.42;15.30;;;;;;;6.05;76.56;98834.09;9763676;28;22384;-71
2020/12/07 21:01:14;;;;;;;17.25;14.32;;;;;;;5.96;76.57;98825.09;9740397;28;20139;-71
2020/12/07 21:06:19;;;;;;;17.83;15.77;;;;;;;5.99;76.31;98824.88;9747234;28;20090;-71
2020/12/07 21:11:20;;;;;;;15.85;14.25;;;;;;;5.97;75.96;98832.09;9734998;28;20052;-72
2020/12/07 21:16:21;;;;;;;14.82;13.25;;;;;;;5.94;76.48;98830.53;9735339;28;20130;-71
2020/12/07 21:21:22;;;;;;;13.93;12.50;;;;;;;5.96;76.01;98830.38;9740261;28;20051;-72
2020/12/07 21:26:24;;;;;;;15.35;13.85;;;;;;;5.95;76.10;98826.91;9753433;28;20057;-73
2020/12/07 21:31:25;;;;;;;15.23;13.63;;;;;;;5.99;76.14;98825.72;9741469;28;20105;-71
2020/12/07 21:36:27;;;;;;;14.82;12.55;;;;;;;6.00;75.81;98824.78;9737704;28;24867;-72
2020/12/07 21:41:32;;;;;;;14.30;12.50;;;;;;;5.99;74.98;98820.44;9729211;28;20994;-75
2020/12/07 21:46:34;;;;;;;14.75;12.15;;;;;;;6.00;75.48;98816.84;9737840;28;21855;-74
2020/12/07 21:51:35;;;;;;;14.77;12.45;;;;;;;6.03;75.82;98825.47;9739687;28;20841;-74
2020/12/07 21:56:37;;;;;;;13.55;12.25;;;;;;;6.03;75.45;98825.47;9739604;28;20055;-72
2020/12/07 22:01:39;;;;;;;13.85;12.38;;;;;;;6.04;75.51;98829.81;9736717;28;20130;-74
2020/12/07 22:06:43;;;;;;;14.50;12.75;;;;;;;6.05;75.46;98826.16;9742820;28;20074;-72
2020/12/07 22:11:45;;;;;;;14.75;13.15;;;;;;;6.03;74.98;98822.84;9737748;28;20066;-72
2020/12/07 22:16:47;;;;;;;13.55;12.18;;;;;;;5.92;75.77;98824.53;9726942;28;20082;-72
2020/12/07 22:21:49;;;;;;;14.57;13.18;;;;;;;5.93;75.65;98831.50;9737089;28;20983;-70
2020/12/07 22:26:50;;;;;;;13.98;12.50;;;;;;;5.86;76.15;98835.63;9727758;28;20414;-72
2020/12/07 22:31:51;;;;;;;15.35;13.82;;;;;;;5.83;75.78;98830.59;9725817;28;20114;-72
2020/12/07 22:36:52;;;;;;;14.45;12.95;;;;;;;5.85;75.10;98833.94;9741005;28;20134;-72
2020/12/07 22:41:54;;;;;;;15.43;13.13;;;;;;;5.88;75.54;98841.59;9744995;28;21863;-71
2020/12/07 22:46:55;;;;;;;13.82;12.35;;;;;;;5.84;75.08;98835.75;9730337;28;20047;-73
2020/12/07 22:51:57;;;;;;;13.90;12.52;;;;;;;5.81;74.71;98835.16;9743493;28;20051;-71
2020/12/07 22:56:59;;;;;;;14.57;12.90;;;;;;;5.66;74.88;98835.47;9740972;28;20529;-72
2020/12/07 23:02:01;;;;;;;15.60;13.85;;;;;;;5.62;74.44;98834.03;9745569;28;20086;-71
2020/12/07 23:07:04;;;;;;;15.68;13.65;;;;;;;5.69;74.39;98830.91;9745333;28;20130;-71
2020/12/07 23:12:05;;;;;;;15.90;14.07;;;;;;;5.66;73.67;98839.94;9714398;28;20473;-71
2020/12/07 23:17:07;;;;;;;16.58;14.40;;;;;;;5.51;73.82;98842.03;9719262;28;20060;-72
2020/12/07 23:22:08;;;;;;;15.48;13.85;;;;;;;5.52;73.92;98848.97;9726727;28;20134;-72
2020/12/07 23:27:09;;;;;;;13.85;12.05;;;;;;;5.37;72.72;98837.84;9715168;28;23569;-72
2020/12/07 23:32:11;;;;;;;15.75;14.13;;;;;;;5.42;72.27;98843.63;9718814;28;20062;-73
2020/12/07 23:37:12;;;;;;;15.85;14.07;;;;;;;5.39;71.96;98835.09;9746027;28;20158;-72
2020/12/07 23:42:14;;;;;;;14.82;13.23;;;;;;;5.34;71.79;98842.56;9727093;28;20569;-72
2020/12/07 23:47:15;;;;;;;13.57;12.15;;;;;;;5.26;72.08;98843.19;9749673;28;20051;-72
2020/12/07 23:52:16;;;;;;;15.13;12.88;;;;;;;4.82;72.51;98839.66;9744762;28;21567;-72
2020/12/07 23:57:17;;;;;;;13.35;11.93;;;;;;;4.91;71.95;98850.31;9739521;28;20055;-71
